createdAt,value
2017-05-29T00:04:03.121Z,91.1
2017-05-29T00:14:18.696Z,91.3
2017-05-29T00:24:33.550Z,91.1
2017-05-29T00:34:47.965Z,91.2
2017-05-29T00:45:02.067Z,91.8
2017-05-29T00:55:17.603Z,93.3
2017-05-29T01:05:31.583Z,94.2
2017-05-29T01:15:46.712Z,95.1
2017-05-29T01:26:01.243Z,95.2
2017-05-29T01:36:15.422Z,95.4
2017-05-29T01:46:31.110Z,95.6
2017-05-29T01:56:46.558Z,96.4
2017-05-29T02:07:02.134Z,96.7
2017-05-29T02:17:17.046Z,97.1
2017-05-29T02:27:31.080Z,97.3
2017-05-29T02:37:44.827Z,98.1
2017-05-29T02:48:00.380Z,98.7
2017-05-29T02:58:14.612Z,99.2
2017-05-29T03:08:29.614Z,99.2
2017-05-29T03:18:44.857Z,99.8
2017-05-29T03:28:59.335Z,100
2017-05-29T03:39:13.282Z,100
2017-05-29T03:49:27.346Z,100
2017-05-29T03:59:41.314Z,100
2017-05-29T04:09:55.153Z,100
2017-05-29T04:20:09.575Z,100
2017-05-29T04:30:25.187Z,100
2017-05-29T04:40:40.200Z,100
2017-05-29T04:50:54.956Z,100
2017-05-29T05:01:09.809Z,100
2017-05-29T05:11:23.650Z,100
2017-05-29T05:21:38.135Z,100
2017-05-29T05:31:52.753Z,100
2017-05-29T05:42:07.098Z,99.6
2017-05-29T05:52:22.169Z,99.2
2017-05-29T06:02:36.711Z,97.8
2017-05-29T06:12:51.558Z,96.4
2017-05-29T06:23:07.146Z,94.3
2017-05-29T06:33:22.360Z,91.8
2017-05-29T06:43:36.476Z,90
2017-05-29T06:53:51.062Z,89.1
2017-05-29T07:04:06.791Z,88.6
2017-05-29T07:14:21.724Z,88.8
2017-05-29T07:24:35.742Z,87
2017-05-29T07:34:50.474Z,85
2017-05-29T07:45:06.261Z,84.4
2017-05-29T07:55:20.844Z,83.3
2017-05-29T08:05:35.837Z,81.9
2017-05-29T08:15:51.359Z,80.3
2017-05-29T08:26:06.875Z,79.3
2017-05-29T08:36:21.822Z,80
2017-05-29T08:46:36.626Z,78.9
2017-05-29T08:56:52.422Z,78.2
2017-05-29T09:07:06.541Z,77.9
2017-05-29T09:17:21.172Z,79.1
2017-05-29T09:27:36.829Z,77
2017-05-29T09:37:51.471Z,75.6
2017-05-29T09:48:05.588Z,76.5
2017-05-29T09:58:20.363Z,76
2017-05-29T10:08:35.293Z,74.3
2017-05-29T10:18:50.494Z,72
2017-05-29T10:29:06.168Z,72.2
2017-05-29T10:39:21.105Z,72
2017-05-29T10:49:35.310Z,71
2017-05-29T10:59:50.430Z,70.9
2017-05-29T11:10:06.222Z,70.5
2017-05-29T11:20:21.228Z,70.1
2017-05-29T11:30:36.988Z,69.5
2017-05-29T11:40:51.637Z,69
2017-05-29T11:51:07.038Z,66.7
2017-05-29T12:01:21.165Z,68.3
2017-05-29T12:11:36.410Z,66.8
2017-05-29T12:21:51.566Z,65.4
2017-05-29T12:32:05.905Z,64.5
2017-05-29T12:42:20.984Z,65.3
2017-05-29T12:52:35.431Z,65
2017-05-29T13:02:49.831Z,64.1
2017-05-29T13:13:04.541Z,64.3
2017-05-29T13:23:20.046Z,62.1
2017-05-29T13:33:34.560Z,61.6
2017-05-29T13:43:49.619Z,61.7
2017-05-29T13:54:03.870Z,61.5
2017-05-29T14:04:19.822Z,62
2017-05-29T14:14:35.469Z,59.8
2017-05-29T14:24:50.781Z,59.3
2017-05-29T14:35:06.034Z,59.4
2017-05-29T14:45:21.648Z,58.1
2017-05-29T14:55:37.147Z,56.7
2017-05-29T15:05:52.876Z,56.7
2017-05-29T15:16:07.649Z,56.9
2017-05-29T15:26:23.388Z,52.7
2017-05-29T15:36:38.382Z,50.7
2017-05-29T15:46:52.991Z,50.9
2017-05-29T15:57:07.279Z,50.5
2017-05-29T16:07:22.638Z,50.3
2017-05-29T16:17:36.910Z,49.6
2017-05-29T16:27:51.042Z,49.6
2017-05-29T16:38:05.275Z,50.4
2017-05-29T16:48:20.331Z,50.7
2017-05-29T16:58:34.950Z,52.3
2017-05-29T17:08:50.140Z,53.5
2017-05-29T17:19:05.373Z,53.8
2017-05-29T17:29:19.398Z,56.6
2017-05-29T17:39:35.139Z,60
2017-05-29T17:49:50.003Z,64.1
2017-05-29T18:00:04.943Z,68.5
2017-05-29T18:10:19.602Z,69.9
2017-05-29T18:20:34.668Z,71.3
2017-05-29T18:30:48.836Z,72.8
2017-05-29T18:41:04.152Z,74.8
2017-05-29T18:51:19.482Z,76.6
2017-05-29T19:01:33.374Z,78.5
2017-05-29T19:11:48.650Z,79
2017-05-29T19:22:03.665Z,80.8
2017-05-29T19:32:19.154Z,81.3
2017-05-29T19:42:34.225Z,82.9
2017-05-29T19:52:50.019Z,83.8
2017-05-29T20:03:04.345Z,83
2017-05-29T20:13:18.354Z,82.8
2017-05-29T20:23:33.998Z,83.7
2017-05-29T20:33:47.862Z,82.9
2017-05-29T20:44:03.404Z,83.3
2017-05-29T20:54:17.737Z,83.5
2017-05-29T21:04:31.702Z,84.5
2017-05-29T21:14:46.201Z,85.6
2017-05-29T21:25:01.555Z,87.4
2017-05-29T21:35:17.221Z,89.4
2017-05-29T21:45:32.931Z,89.8
2017-05-29T21:55:48.375Z,90.9
2017-05-29T22:06:03.991Z,92.1
2017-05-29T22:16:19.133Z,93.1
2017-05-29T22:26:33.975Z,93.8
2017-05-29T22:36:48.890Z,94.4
2017-05-29T22:47:02.766Z,94.6
2017-05-29T22:57:17.431Z,95.4
2017-05-29T23:07:32.949Z,96.2
2017-05-29T23:17:46.839Z,96.8
2017-05-29T23:28:01.905Z,97.3
2017-05-29T23:38:16.360Z,98.5
2017-05-29T23:48:30.856Z,99.5
2017-05-29T23:58:45.369Z,100
